sensor_id;sensor_type;location;lat;lon;timestamp;pressure;altitude;pressure_sealevel;temperature
71463;BMP180;59266;52.608;13.260;2024-01-06T00:01:11;100120.00;;;1.60
71463;BMP180;59266;52.608;13.260;2024-01-06T00:03:40;100112.00;;;1.70
71463;BMP180;59266;52.608;13.260;2024-01-06T00:06:07;100114.00;;;1.50
71463;BMP180;59266;52.608;13.260;2024-01-06T00:08:33;100124.00;;;1.50
71463;BMP180;59266;52.608;13.260;2024-01-06T00:11:00;100120.00;;;1.40
71463;BMP180;59266;52.608;13.260;2024-01-06T00:13:29;100116.00;;;1.40
71463;BMP180;59266;52.608;13.260;2024-01-06T00:15:56;100113.00;;;1.30
71463;BMP180;59266;52.608;13.260;2024-01-06T00:18:23;100124.00;;;1.40
71463;BMP180;59266;52.608;13.260;2024-01-06T00:20:52;100111.00;;;1.40
71463;BMP180;59266;52.608;13.260;2024-01-06T00:23:19;100130.00;;;1.50
71463;BMP180;59266;52.608;13.260;2024-01-06T00:25:45;100125.00;;;1.40
71463;BMP180;59266;52.608;13.260;2024-01-06T00:28:12;100132.00;;;1.40
71463;BMP180;59266;52.608;13.260;2024-01-06T00:30:38;100136.00;;;1.40
71463;BMP180;59266;52.608;13.260;2024-01-06T00:33:05;100125.00;;;1.50
71463;BMP180;59266;52.608;13.260;2024-01-06T00:35:32;100122.00;;;1.50
71463;BMP180;59266;52.608;13.260;2024-01-06T00:37:59;100130.00;;;1.50
71463;BMP180;59266;52.608;13.260;2024-01-06T00:40:27;100135.00;;;1.30
71463;BMP180;59266;52.608;13.260;2024-01-06T00:42:55;100126.00;;;1.30
71463;BMP180;59266;52.608;13.260;2024-01-06T00:45:22;100134.00;;;1.30
71463;BMP180;59266;52.608;13.260;2024-01-06T00:47:49;100126.00;;;1.30
71463;BMP180;59266;52.608;13.260;2024-01-06T00:50:17;100137.00;;;1.30
71463;BMP180;59266;52.608;13.260;2024-01-06T00:52:46;100130.00;;;1.30
71463;BMP180;59266;52.608;13.260;2024-01-06T00:55:12;100129.00;;;1.30
71463;BMP180;59266;52.608;13.260;2024-01-06T00:57:39;100134.00;;;1.30
71463;BMP180;59266;52.608;13.260;2024-01-06T01:00:06;100134.00;;;1.30
71463;BMP180;59266;52.608;13.260;2024-01-06T01:02:33;100130.00;;;1.30
71463;BMP180;59266;52.608;13.260;2024-01-06T01:05:02;100142.00;;;1.30
71463;BMP180;59266;52.608;13.260;2024-01-06T01:07:28;100149.00;;;1.40
71463;BMP180;59266;52.608;13.260;2024-01-06T01:09:55;100150.00;;;1.30
71463;BMP180;59266;52.608;13.260;2024-01-06T01:12:23;100159.00;;;1.40
71463;BMP180;59266;52.608;13.260;2024-01-06T01:14:51;100162.00;;;1.40
71463;BMP180;59266;52.608;13.260;2024-01-06T01:17:18;100160.00;;;1.50
71463;BMP180;59266;52.608;13.260;2024-01-06T01:19:45;100168.00;;;1.50
71463;BMP180;59266;52.608;13.260;2024-01-06T01:22:13;100175.00;;;1.50
71463;BMP180;59266;52.608;13.260;2024-01-06T01:24:40;100175.00;;;1.50
71463;BMP180;59266;52.608;13.260;2024-01-06T01:27:07;100170.00;;;1.60
71463;BMP180;59266;52.608;13.260;2024-01-06T01:29:34;100190.00;;;1.50
71463;BMP180;59266;52.608;13.260;2024-01-06T01:32:04;100170.00;;;1.40
71463;BMP180;59266;52.608;13.260;2024-01-06T01:34:38;100182.00;;;1.50
71463;BMP180;59266;52.608;13.260;2024-01-06T01:37:05;100180.00;;;1.50
71463;BMP180;59266;52.608;13.260;2024-01-06T01:39:32;100173.00;;;1.50
71463;BMP180;59266;52.608;13.260;2024-01-06T01:42:01;100176.00;;;1.50
71463;BMP180;59266;52.608;13.260;2024-01-06T01:44:29;100169.00;;;1.50
71463;BMP180;59266;52.608;13.260;2024-01-06T01:46:56;100168.00;;;1.40
71463;BMP180;59266;52.608;13.260;2024-01-06T01:49:24;100162.00;;;1.40
71463;BMP180;59266;52.608;13.260;2024-01-06T01:51:51;100170.00;;;1.40
71463;BMP180;59266;52.608;13.260;2024-01-06T01:54:19;100170.00;;;1.40
71463;BMP180;59266;52.608;13.260;2024-01-06T01:56:45;100175.00;;;1.40
71463;BMP180;59266;52.608;13.260;2024-01-06T01:59:13;100178.00;;;1.40
71463;BMP180;59266;52.608;13.260;2024-01-06T02:01:40;100177.00;;;1.50
71463;BMP180;59266;52.608;13.260;2024-01-06T02:04:08;100184.00;;;1.50
71463;BMP180;59266;52.608;13.260;2024-01-06T02:06:34;100191.00;;;1.50
71463;BMP180;59266;52.608;13.260;2024-01-06T02:09:01;100186.00;;;1.40
71463;BMP180;59266;52.608;13.260;2024-01-06T02:11:28;100193.00;;;1.50
71463;BMP180;59266;52.608;13.260;2024-01-06T02:13:55;100196.00;;;1.40
71463;BMP180;59266;52.608;13.260;2024-01-06T02:16:22;100203.00;;;1.30
71463;BMP180;59266;52.608;13.260;2024-01-06T02:18:49;100202.00;;;1.30
71463;BMP180;59266;52.608;13.260;2024-01-06T02:21:17;100188.00;;;1.30
71463;BMP180;59266;52.608;13.260;2024-01-06T02:23:44;100191.00;;;1.30
71463;BMP180;59266;52.608;13.260;2024-01-06T02:26:11;100196.00;;;1.20
71463;BMP180;59266;52.608;13.260;2024-01-06T02:28:39;100197.00;;;1.30
71463;BMP180;59266;52.608;13.260;2024-01-06T02:31:06;100204.00;;;1.40
71463;BMP180;59266;52.608;13.260;2024-01-06T02:33:33;100199.00;;;1.40
71463;BMP180;59266;52.608;13.260;2024-01-06T02:36:00;100195.00;;;1.30
71463;BMP180;59266;52.608;13.260;2024-01-06T02:38:27;100194.00;;;1.30
71463;BMP180;59266;52.608;13.260;2024-01-06T02:40:53;100198.00;;;1.20
71463;BMP180;59266;52.608;13.260;2024-01-06T02:43:20;100206.00;;;1.30
71463;BMP180;59266;52.608;13.260;2024-01-06T02:45:46;100209.00;;;1.20
71463;BMP180;59266;52.608;13.260;2024-01-06T02:48:13;100214.00;;;1.20
71463;BMP180;59266;52.608;13.260;2024-01-06T02:50:40;100216.00;;;1.30
71463;BMP180;59266;52.608;13.260;2024-01-06T02:53:07;100219.00;;;1.20
71463;BMP180;59266;52.608;13.260;2024-01-06T02:55:36;100217.00;;;1.20
71463;BMP180;59266;52.608;13.260;2024-01-06T02:58:02;100223.00;;;1.30
71463;BMP180;59266;52.608;13.260;2024-01-06T03:00:29;100215.00;;;1.40
71463;BMP180;59266;52.608;13.260;2024-01-06T03:02:56;100214.00;;;1.40
71463;BMP180;59266;52.608;13.260;2024-01-06T03:05:23;100220.00;;;1.40
71463;BMP180;59266;52.608;13.260;2024-01-06T03:07:49;100218.00;;;1.30
71463;BMP180;59266;52.608;13.260;2024-01-06T03:10:16;100224.00;;;1.40
71463;BMP180;59266;52.608;13.260;2024-01-06T03:12:43;100226.00;;;1.30
71463;BMP180;59266;52.608;13.260;2024-01-06T03:15:10;100228.00;;;1.30
71463;BMP180;59266;52.608;13.260;2024-01-06T03:17:37;100221.00;;;1.30
71463;BMP180;59266;52.608;13.260;2024-01-06T03:20:04;100227.00;;;1.50
71463;BMP180;59266;52.608;13.260;2024-01-06T03:22:31;100213.00;;;1.40
71463;BMP180;59266;52.608;13.260;2024-01-06T03:24:59;100220.00;;;1.40
71463;BMP180;59266;52.608;13.260;2024-01-06T03:27:26;100215.00;;;1.40
71463;BMP180;59266;52.608;13.260;2024-01-06T03:29:53;100219.00;;;1.40
71463;BMP180;59266;52.608;13.260;2024-01-06T03:32:19;100226.00;;;1.30
71463;BMP180;59266;52.608;13.260;2024-01-06T03:34:46;100226.00;;;1.30
71463;BMP180;59266;52.608;13.260;2024-01-06T03:37:13;100234.00;;;1.30
71463;BMP180;59266;52.608;13.260;2024-01-06T03:39:39;100244.00;;;1.30
71463;BMP180;59266;52.608;13.260;2024-01-06T03:42:06;100235.00;;;1.40
71463;BMP180;59266;52.608;13.260;2024-01-06T03:44:33;100244.00;;;1.40
71463;BMP180;59266;52.608;13.260;2024-01-06T03:47:00;100244.00;;;1.30
71463;BMP180;59266;52.608;13.260;2024-01-06T03:49:26;100250.00;;;1.40
71463;BMP180;59266;52.608;13.260;2024-01-06T03:51:59;100258.00;;;1.40
71463;BMP180;59266;52.608;13.260;2024-01-06T03:54:26;100261.00;;;1.50
71463;BMP180;59266;52.608;13.260;2024-01-06T03:56:53;100260.00;;;1.50
71463;BMP180;59266;52.608;13.260;2024-01-06T03:59:20;100253.00;;;1.40
71463;BMP180;59266;52.608;13.260;2024-01-06T04:01:47;100254.00;;;1.40
71463;BMP180;59266;52.608;13.260;2024-01-06T04:04:13;100262.00;;;1.50
71463;BMP180;59266;52.608;13.260;2024-01-06T04:06:40;100268.00;;;1.50
71463;BMP180;59266;52.608;13.260;2024-01-06T04:09:07;100262.00;;;1.40
71463;BMP180;59266;52.608;13.260;2024-01-06T04:11:33;100269.00;;;1.30
71463;BMP180;59266;52.608;13.260;2024-01-06T04:14:00;100269.00;;;1.40
71463;BMP180;59266;52.608;13.260;2024-01-06T04:16:27;100268.00;;;1.40
71463;BMP180;59266;52.608;13.260;2024-01-06T04:18:54;100280.00;;;1.40
71463;BMP180;59266;52.608;13.260;2024-01-06T04:21:21;100273.00;;;1.60
71463;BMP180;59266;52.608;13.260;2024-01-06T04:23:49;100282.00;;;1.50
71463;BMP180;59266;52.608;13.260;2024-01-06T04:26:16;100293.00;;;1.50
71463;BMP180;59266;52.608;13.260;2024-01-06T04:28:43;100286.00;;;1.40
71463;BMP180;59266;52.608;13.260;2024-01-06T04:31:11;100296.00;;;1.40
71463;BMP180;59266;52.608;13.260;2024-01-06T04:33:38;100298.00;;;1.40
71463;BMP180;59266;52.608;13.260;2024-01-06T04:36:08;100298.00;;;1.30
71463;BMP180;59266;52.608;13.260;2024-01-06T04:38:35;100295.00;;;1.30
71463;BMP180;59266;52.608;13.260;2024-01-06T04:41:02;100294.00;;;1.30
71463;BMP180;59266;52.608;13.260;2024-01-06T04:43:28;100292.00;;;1.20
71463;BMP180;59266;52.608;13.260;2024-01-06T04:45:55;100290.00;;;1.30
71463;BMP180;59266;52.608;13.260;2024-01-06T04:48:23;100294.00;;;1.30
71463;BMP180;59266;52.608;13.260;2024-01-06T04:50:50;100303.00;;;1.30
71463;BMP180;59266;52.608;13.260;2024-01-06T04:53:19;100297.00;;;1.20
71463;BMP180;59266;52.608;13.260;2024-01-06T04:55:45;100305.00;;;1.20
71463;BMP180;59266;52.608;13.260;2024-01-06T04:58:12;100316.00;;;1.30
71463;BMP180;59266;52.608;13.260;2024-01-06T05:00:39;100307.00;;;1.30
71463;BMP180;59266;52.608;13.260;2024-01-06T05:03:05;100310.00;;;1.20
71463;BMP180;59266;52.608;13.260;2024-01-06T05:05:32;100313.00;;;1.20
71463;BMP180;59266;52.608;13.260;2024-01-06T05:07:59;100311.00;;;1.30
71463;BMP180;59266;52.608;13.260;2024-01-06T05:10:26;100311.00;;;1.20
71463;BMP180;59266;52.608;13.260;2024-01-06T05:12:53;100309.00;;;1.20
71463;BMP180;59266;52.608;13.260;2024-01-06T05:15:19;100320.00;;;1.10
71463;BMP180;59266;52.608;13.260;2024-01-06T05:17:46;100318.00;;;1.10
71463;BMP180;59266;52.608;13.260;2024-01-06T05:20:13;100320.00;;;1.10
71463;BMP180;59266;52.608;13.260;2024-01-06T05:22:40;100324.00;;;1.10
71463;BMP180;59266;52.608;13.260;2024-01-06T05:25:07;100324.00;;;1.20
71463;BMP180;59266;52.608;13.260;2024-01-06T05:27:34;100326.00;;;1.20
71463;BMP180;59266;52.608;13.260;2024-01-06T05:30:01;100338.00;;;1.20
71463;BMP180;59266;52.608;13.260;2024-01-06T05:32:27;100336.00;;;1.20
71463;BMP180;59266;52.608;13.260;2024-01-06T05:34:55;100333.00;;;1.20
71463;BMP180;59266;52.608;13.260;2024-01-06T05:37:22;100335.00;;;1.10
71463;BMP180;59266;52.608;13.260;2024-01-06T05:39:48;100340.00;;;1.10
71463;BMP180;59266;52.608;13.260;2024-01-06T05:42:15;100342.00;;;1.20
71463;BMP180;59266;52.608;13.260;2024-01-06T05:44:42;100354.00;;;1.00
71463;BMP180;59266;52.608;13.260;2024-01-06T05:47:09;100355.00;;;1.00
71463;BMP180;59266;52.608;13.260;2024-01-06T05:49:35;100356.00;;;1.20
71463;BMP180;59266;52.608;13.260;2024-01-06T05:52:05;100360.00;;;1.20
71463;BMP180;59266;52.608;13.260;2024-01-06T05:54:32;100360.00;;;1.00
71463;BMP180;59266;52.608;13.260;2024-01-06T05:56:58;100364.00;;;1.20
71463;BMP180;59266;52.608;13.260;2024-01-06T05:59:26;100374.00;;;1.10
71463;BMP180;59266;52.608;13.260;2024-01-06T06:01:52;100376.00;;;1.10
71463;BMP180;59266;52.608;13.260;2024-01-06T06:04:19;100386.00;;;1.10
71463;BMP180;59266;52.608;13.260;2024-01-06T06:06:46;100377.00;;;1.00
71463;BMP180;59266;52.608;13.260;2024-01-06T06:09:12;100400.00;;;1.00
71463;BMP180;59266;52.608;13.260;2024-01-06T06:11:39;100391.00;;;1.20
71463;BMP180;59266;52.608;13.260;2024-01-06T06:14:06;100393.00;;;1.20
71463;BMP180;59266;52.608;13.260;2024-01-06T06:16:32;100399.00;;;1.00
71463;BMP180;59266;52.608;13.260;2024-01-06T06:18:59;100402.00;;;1.00
71463;BMP180;59266;52.608;13.260;2024-01-06T06:21:26;100409.00;;;1.00
71463;BMP180;59266;52.608;13.260;2024-01-06T06:23:52;100429.00;;;1.00
71463;BMP180;59266;52.608;13.260;2024-01-06T06:26:19;100434.00;;;1.00
71463;BMP180;59266;52.608;13.260;2024-01-06T06:28:46;100434.00;;;1.10
71463;BMP180;59266;52.608;13.260;2024-01-06T06:31:12;100441.00;;;1.00
71463;BMP180;59266;52.608;13.260;2024-01-06T06:33:39;100442.00;;;1.00
71463;BMP180;59266;52.608;13.260;2024-01-06T06:36:06;100441.00;;;0.90
71463;BMP180;59266;52.608;13.260;2024-01-06T06:38:33;100444.00;;;0.90
71463;BMP180;59266;52.608;13.260;2024-01-06T06:40:59;100447.00;;;1.00
71463;BMP180;59266;52.608;13.260;2024-01-06T06:43:26;100444.00;;;1.00
71463;BMP180;59266;52.608;13.260;2024-01-06T06:45:53;100445.00;;;1.00
71463;BMP180;59266;52.608;13.260;2024-01-06T06:48:21;100443.00;;;0.90
71463;BMP180;59266;52.608;13.260;2024-01-06T06:50:48;100444.00;;;0.80
71463;BMP180;59266;52.608;13.260;2024-01-06T06:53:16;100459.00;;;0.90
71463;BMP180;59266;52.608;13.260;2024-01-06T06:55:43;100457.00;;;0.80
71463;BMP180;59266;52.608;13.260;2024-01-06T06:58:10;100470.00;;;0.80
71463;BMP180;59266;52.608;13.260;2024-01-06T07:00:37;100473.00;;;0.90
71463;BMP180;59266;52.608;13.260;2024-01-06T07:03:04;100476.00;;;0.80
71463;BMP180;59266;52.608;13.260;2024-01-06T07:05:31;100480.00;;;0.80
71463;BMP180;59266;52.608;13.260;2024-01-06T07:08:00;100471.00;;;0.80
71463;BMP180;59266;52.608;13.260;2024-01-06T07:10:27;100483.00;;;0.90
71463;BMP180;59266;52.608;13.260;2024-01-06T07:12:53;100487.00;;;0.90
71463;BMP180;59266;52.608;13.260;2024-01-06T07:15:20;100493.00;;;0.90
71463;BMP180;59266;52.608;13.260;2024-01-06T07:17:47;100500.00;;;0.90
71463;BMP180;59266;52.608;13.260;2024-01-06T07:20:14;100501.00;;;0.90
71463;BMP180;59266;52.608;13.260;2024-01-06T07:22:40;100496.00;;;0.80
71463;BMP180;59266;52.608;13.260;2024-01-06T07:25:08;100501.00;;;0.80
71463;BMP180;59266;52.608;13.260;2024-01-06T07:27:35;100502.00;;;0.80
71463;BMP180;59266;52.608;13.260;2024-01-06T07:30:02;100509.00;;;0.90
71463;BMP180;59266;52.608;13.260;2024-01-06T07:32:29;100510.00;;;0.90
71463;BMP180;59266;52.608;13.260;2024-01-06T07:34:59;100516.00;;;0.90
71463;BMP180;59266;52.608;13.260;2024-01-06T07:37:30;100523.00;;;0.80
71463;BMP180;59266;52.608;13.260;2024-01-06T07:39:56;100520.00;;;0.70
71463;BMP180;59266;52.608;13.260;2024-01-06T07:42:23;100523.00;;;0.80
71463;BMP180;59266;52.608;13.260;2024-01-06T07:44:50;100532.00;;;0.80
71463;BMP180;59266;52.608;13.260;2024-01-06T07:47:16;100519.00;;;0.60
71463;BMP180;59266;52.608;13.260;2024-01-06T07:49:44;100535.00;;;0.70
71463;BMP180;59266;52.608;13.260;2024-01-06T07:52:17;100536.00;;;0.60
71463;BMP180;59266;52.608;13.260;2024-01-06T07:54:43;100542.00;;;0.60
71463;BMP180;59266;52.608;13.260;2024-01-06T07:57:11;100543.00;;;0.60
71463;BMP180;59266;52.608;13.260;2024-01-06T07:59:38;100557.00;;;0.50
71463;BMP180;59266;52.608;13.260;2024-01-06T08:02:05;100561.00;;;0.60
71463;BMP180;59266;52.608;13.260;2024-01-06T08:04:32;100562.00;;;0.60
71463;BMP180;59266;52.608;13.260;2024-01-06T08:06:59;100563.00;;;0.50
71463;BMP180;59266;52.608;13.260;2024-01-06T08:09:25;100569.00;;;0.50
71463;BMP180;59266;52.608;13.260;2024-01-06T08:11:52;100573.00;;;0.50
71463;BMP180;59266;52.608;13.260;2024-01-06T08:14:19;100587.00;;;0.50
71463;BMP180;59266;52.608;13.260;2024-01-06T08:16:46;100586.00;;;0.50
71463;BMP180;59266;52.608;13.260;2024-01-06T08:19:14;100599.00;;;0.50
71463;BMP180;59266;52.608;13.260;2024-01-06T08:21:43;100595.00;;;0.60
71463;BMP180;59266;52.608;13.260;2024-01-06T08:24:10;100597.00;;;0.60
71463;BMP180;59266;52.608;13.260;2024-01-06T08:26:38;100598.00;;;0.50
71463;BMP180;59266;52.608;13.260;2024-01-06T08:29:05;100601.00;;;0.60
71463;BMP180;59266;52.608;13.260;2024-01-06T08:31:32;100599.00;;;0.40
71463;BMP180;59266;52.608;13.260;2024-01-06T08:33:59;100619.00;;;0.40
71463;BMP180;59266;52.608;13.260;2024-01-06T08:36:27;100632.00;;;0.40
71463;BMP180;59266;52.608;13.260;2024-01-06T08:38:54;100617.00;;;0.60
71463;BMP180;59266;52.608;13.260;2024-01-06T08:41:21;100623.00;;;0.60
71463;BMP180;59266;52.608;13.260;2024-01-06T08:43:48;100626.00;;;0.60
71463;BMP180;59266;52.608;13.260;2024-01-06T08:46:15;100632.00;;;0.60
71463;BMP180;59266;52.608;13.260;2024-01-06T08:48:42;100628.00;;;0.80
71463;BMP180;59266;52.608;13.260;2024-01-06T08:51:08;100637.00;;;0.60
71463;BMP180;59266;52.608;13.260;2024-01-06T08:53:36;100652.00;;;0.70
71463;BMP180;59266;52.608;13.260;2024-01-06T08:56:03;100649.00;;;0.70
71463;BMP180;59266;52.608;13.260;2024-01-06T08:58:30;100649.00;;;0.60
71463;BMP180;59266;52.608;13.260;2024-01-06T09:00:56;100655.00;;;0.80
71463;BMP180;59266;52.608;13.260;2024-01-06T09:03:23;100666.00;;;0.70
71463;BMP180;59266;52.608;13.260;2024-01-06T09:05:54;100670.00;;;0.60
71463;BMP180;59266;52.608;13.260;2024-01-06T09:08:21;100678.00;;;0.60
71463;BMP180;59266;52.608;13.260;2024-01-06T09:10:50;100677.00;;;0.70
71463;BMP180;59266;52.608;13.260;2024-01-06T09:13:25;100678.00;;;0.60
71463;BMP180;59266;52.608;13.260;2024-01-06T09:15:51;100686.00;;;0.50
71463;BMP180;59266;52.608;13.260;2024-01-06T09:18:19;100685.00;;;0.50
71463;BMP180;59266;52.608;13.260;2024-01-06T09:20:47;100690.00;;;0.60
71463;BMP180;59266;52.608;13.260;2024-01-06T09:23:16;100694.00;;;0.60
71463;BMP180;59266;52.608;13.260;2024-01-06T09:25:48;100687.00;;;0.50
71463;BMP180;59266;52.608;13.260;2024-01-06T09:28:20;100697.00;;;0.60
71463;BMP180;59266;52.608;13.260;2024-01-06T09:30:50;100698.00;;;0.60
71463;BMP180;59266;52.608;13.260;2024-01-06T09:33:19;100700.00;;;0.60
71463;BMP180;59266;52.608;13.260;2024-01-06T09:35:46;100697.00;;;0.60
71463;BMP180;59266;52.608;13.260;2024-01-06T09:38:13;100704.00;;;0.50
71463;BMP180;59266;52.608;13.260;2024-01-06T09:40:43;100700.00;;;0.70
71463;BMP180;59266;52.608;13.260;2024-01-06T09:43:11;100702.00;;;0.70
71463;BMP180;59266;52.608;13.260;2024-01-06T09:45:39;100718.00;;;0.70
71463;BMP180;59266;52.608;13.260;2024-01-06T09:48:13;100716.00;;;0.80
71463;BMP180;59266;52.608;13.260;2024-01-06T09:50:43;100719.00;;;0.80
71463;BMP180;59266;52.608;13.260;2024-01-06T09:53:13;100721.00;;;0.70
71463;BMP180;59266;52.608;13.260;2024-01-06T09:55:40;100715.00;;;0.70
71463;BMP180;59266;52.608;13.260;2024-01-06T09:58:08;100720.00;;;0.70
71463;BMP180;59266;52.608;13.260;2024-01-06T10:00:35;100726.00;;;0.60
71463;BMP180;59266;52.608;13.260;2024-01-06T10:03:02;100729.00;;;0.60
71463;BMP180;59266;52.608;13.260;2024-01-06T10:05:28;100722.00;;;0.70
71463;BMP180;59266;52.608;13.260;2024-01-06T10:07:58;100725.00;;;0.60
71463;BMP180;59266;52.608;13.260;2024-01-06T10:10:27;100720.00;;;0.60
71463;BMP180;59266;52.608;13.260;2024-01-06T10:12:55;100720.00;;;0.70
71463;BMP180;59266;52.608;13.260;2024-01-06T10:15:22;100730.00;;;0.60
71463;BMP180;59266;52.608;13.260;2024-01-06T10:17:49;100736.00;;;0.70
71463;BMP180;59266;52.608;13.260;2024-01-06T10:20:16;100744.00;;;0.80
71463;BMP180;59266;52.608;13.260;2024-01-06T10:22:44;100744.00;;;0.70
71463;BMP180;59266;52.608;13.260;2024-01-06T10:25:11;100752.00;;;0.70
71463;BMP180;59266;52.608;13.260;2024-01-06T10:27:40;100752.00;;;0.80
71463;BMP180;59266;52.608;13.260;2024-01-06T10:30:08;100748.00;;;0.80
71463;BMP180;59266;52.608;13.260;2024-01-06T10:32:36;100748.00;;;0.80
71463;BMP180;59266;52.608;13.260;2024-01-06T10:35:07;100744.00;;;0.70
71463;BMP180;59266;52.608;13.260;2024-01-06T10:37:34;100746.00;;;0.80
71463;BMP180;59266;52.608;13.260;2024-01-06T10:40:15;100747.00;;;0.70
71463;BMP180;59266;52.608;13.260;2024-01-06T10:42:45;100734.00;;;0.80
71463;BMP180;59266;52.608;13.260;2024-01-06T10:45:13;100730.00;;;0.70
71463;BMP180;59266;52.608;13.260;2024-01-06T10:47:42;100743.00;;;0.70
71463;BMP180;59266;52.608;13.260;2024-01-06T10:50:10;100734.00;;;0.60
71463;BMP180;59266;52.608;13.260;2024-01-06T10:52:38;100740.00;;;0.60
71463;BMP180;59266;52.608;13.260;2024-01-06T10:55:07;100746.00;;;0.60
71463;BMP180;59266;52.608;13.260;2024-01-06T10:57:34;100746.00;;;0.50
71463;BMP180;59266;52.608;13.260;2024-01-06T11:00:01;100748.00;;;0.60
71463;BMP180;59266;52.608;13.260;2024-01-06T11:02:29;100745.00;;;0.60
71463;BMP180;59266;52.608;13.260;2024-01-06T11:04:57;100749.00;;;0.50
71463;BMP180;59266;52.608;13.260;2024-01-06T11:07:25;100743.00;;;0.40
71463;BMP180;59266;52.608;13.260;2024-01-06T11:10:06;100746.00;;;0.60
71463;BMP180;59266;52.608;13.260;2024-01-06T11:12:36;100733.00;;;0.50
71463;BMP180;59266;52.608;13.260;2024-01-06T11:15:03;100746.00;;;0.50
71463;BMP180;59266;52.608;13.260;2024-01-06T11:17:51;100746.00;;;0.60
71463;BMP180;59266;52.608;13.260;2024-01-06T11:20:25;100754.00;;;0.60
71463;BMP180;59266;52.608;13.260;2024-01-06T11:22:54;100753.00;;;0.60
71463;BMP180;59266;52.608;13.260;2024-01-06T11:25:24;100749.00;;;0.70
71463;BMP180;59266;52.608;13.260;2024-01-06T11:27:50;100743.00;;;0.60
71463;BMP180;59266;52.608;13.260;2024-01-06T11:30:22;100751.00;;;0.60
71463;BMP180;59266;52.608;13.260;2024-01-06T11:32:51;100761.00;;;0.60
71463;BMP180;59266;52.608;13.260;2024-01-06T11:35:22;100754.00;;;0.40
71463;BMP180;59266;52.608;13.260;2024-01-06T11:37:54;100765.00;;;0.60
71463;BMP180;59266;52.608;13.260;2024-01-06T11:40:22;100764.00;;;0.40
71463;BMP180;59266;52.608;13.260;2024-01-06T11:43:03;100767.00;;;0.50
71463;BMP180;59266;52.608;13.260;2024-01-06T11:45:32;100761.00;;;0.50
71463;BMP180;59266;52.608;13.260;2024-01-06T11:48:01;100747.00;;;0.40
71463;BMP180;59266;52.608;13.260;2024-01-06T11:50:35;100757.00;;;0.40
71463;BMP180;59266;52.608;13.260;2024-01-06T11:53:03;100741.00;;;0.40
71463;BMP180;59266;52.608;13.260;2024-01-06T11:55:31;100751.00;;;0.50
71463;BMP180;59266;52.608;13.260;2024-01-06T11:57:59;100753.00;;;0.50
71463;BMP180;59266;52.608;13.260;2024-01-06T12:00:34;100752.00;;;0.50
71463;BMP180;59266;52.608;13.260;2024-01-06T12:03:03;100767.00;;;0.60
71463;BMP180;59266;52.608;13.260;2024-01-06T12:05:30;100755.00;;;0.70
71463;BMP180;59266;52.608;13.260;2024-01-06T12:08:02;100755.00;;;0.50
71463;BMP180;59266;52.608;13.260;2024-01-06T12:10:31;100754.00;;;0.50
71463;BMP180;59266;52.608;13.260;2024-01-06T12:13:06;100749.00;;;0.40
71463;BMP180;59266;52.608;13.260;2024-01-06T12:15:36;100754.00;;;0.60
71463;BMP180;59266;52.608;13.260;2024-01-06T12:18:05;100761.00;;;0.60
71463;BMP180;59266;52.608;13.260;2024-01-06T12:20:32;100755.00;;;0.70
71463;BMP180;59266;52.608;13.260;2024-01-06T12:22:59;100755.00;;;0.60
71463;BMP180;59266;52.608;13.260;2024-01-06T12:25:27;100759.00;;;0.70
71463;BMP180;59266;52.608;13.260;2024-01-06T12:27:55;100761.00;;;0.70
71463;BMP180;59266;52.608;13.260;2024-01-06T12:30:22;100761.00;;;0.60
71463;BMP180;59266;52.608;13.260;2024-01-06T12:32:50;100768.00;;;0.50
71463;BMP180;59266;52.608;13.260;2024-01-06T12:35:22;100780.00;;;0.50
71463;BMP180;59266;52.608;13.260;2024-01-06T12:37:49;100779.00;;;0.50
71463;BMP180;59266;52.608;13.260;2024-01-06T12:40:17;100780.00;;;0.50
71463;BMP180;59266;52.608;13.260;2024-01-06T12:42:46;100772.00;;;0.50
71463;BMP180;59266;52.608;13.260;2024-01-06T12:45:14;100784.00;;;0.60
71463;BMP180;59266;52.608;13.260;2024-01-06T12:47:43;100789.00;;;0.60
71463;BMP180;59266;52.608;13.260;2024-01-06T12:50:13;100784.00;;;0.50
71463;BMP180;59266;52.608;13.260;2024-01-06T12:52:41;100780.00;;;0.40
71463;BMP180;59266;52.608;13.260;2024-01-06T12:55:08;100784.00;;;0.50
71463;BMP180;59266;52.608;13.260;2024-01-06T12:57:35;100792.00;;;0.50
71463;BMP180;59266;52.608;13.260;2024-01-06T13:00:02;100807.00;;;0.60
71463;BMP180;59266;52.608;13.260;2024-01-06T13:02:30;100791.00;;;0.60
71463;BMP180;59266;52.608;13.260;2024-01-06T13:05:00;100800.00;;;0.50
71463;BMP180;59266;52.608;13.260;2024-01-06T13:07:27;100800.00;;;0.50
71463;BMP180;59266;52.608;13.260;2024-01-06T13:09:54;100804.00;;;0.50
71463;BMP180;59266;52.608;13.260;2024-01-06T13:12:21;100808.00;;;0.60
71463;BMP180;59266;52.608;13.260;2024-01-06T13:14:47;100810.00;;;0.50
71463;BMP180;59266;52.608;13.260;2024-01-06T13:17:15;100817.00;;;0.50
71463;BMP180;59266;52.608;13.260;2024-01-06T13:19:43;100826.00;;;0.50
71463;BMP180;59266;52.608;13.260;2024-01-06T13:22:13;100819.00;;;0.40
71463;BMP180;59266;52.608;13.260;2024-01-06T13:24:41;100824.00;;;0.30
71463;BMP180;59266;52.608;13.260;2024-01-06T13:27:08;100834.00;;;0.40
71463;BMP180;59266;52.608;13.260;2024-01-06T13:29:35;100830.00;;;0.40
71463;BMP180;59266;52.608;13.260;2024-01-06T13:32:02;100836.00;;;0.20
71463;BMP180;59266;52.608;13.260;2024-01-06T13:34:29;100846.00;;;0.30
71463;BMP180;59266;52.608;13.260;2024-01-06T13:36:56;100854.00;;;0.30
71463;BMP180;59266;52.608;13.260;2024-01-06T13:39:24;100859.00;;;0.50
71463;BMP180;59266;52.608;13.260;2024-01-06T13:41:50;100857.00;;;0.50
71463;BMP180;59266;52.608;13.260;2024-01-06T13:44:17;100863.00;;;0.40
71463;BMP180;59266;52.608;13.260;2024-01-06T13:46:44;100865.00;;;0.50
71463;BMP180;59266;52.608;13.260;2024-01-06T13:49:11;100872.00;;;0.50
71463;BMP180;59266;52.608;13.260;2024-01-06T13:51:39;100864.00;;;0.50
71463;BMP180;59266;52.608;13.260;2024-01-06T13:54:06;100865.00;;;0.70
71463;BMP180;59266;52.608;13.260;2024-01-06T13:56:45;100873.00;;;0.60
71463;BMP180;59266;52.608;13.260;2024-01-06T13:59:12;100875.00;;;0.50